Baytown, Minnesota
Current Conditions -  °F | °C
As of 11:51 PM on Saturday 22 Nov 2014 (Local Time) from K21D Reporting Station
Haze Haze  
Wind Chill: 35°   Ceiling: 400
Heat Index: 41°   Visibility: 3mi
Dew Point: 41°   Wind: 9mph
Humidity: 100%   Direction: 170°S
Pressure: 29.52"   Gusts: NA
Location:  45.0174°N, 92.7808°W
Report Text: K21D 230551Z AUTO 17008KT 3SM BR OVC004 05/05 A2952 RMK AO2
Loading
Personal Weather Stations






























Interactive Weather Map New forecast layout! Learn more

10-Day Weather Forecast

Advertisements
Track Severe Weather on mobile